Aérodrome :
LOGIN :

S'inscrire | Disclaimer

   EN    FR    IT 

 










Légende :    VFR   VFR Marginal   IFR   IFR Intensif   IFR Très Intensif
Visi : 
Plafond : 
>= 8 km
>= 3000ft
5 à 8 km
1000 à 3000 ft
1500m à 5 km
500 à 1000 ft
800 à 1500m
200 à 500 ft
< 800m
< 200 ft
Symboles :   Orages  Brouillard  Fortes neiges  Fortes précipitations  Vent > 20 kt
SIGMETs :   Divers  Orages  Givrage  Turbulence  Onde Orograph.  Cendres Volcan.







- Altitude de l'aérodrome : 291 ft
- Code IATA : ORY
- Voir les cartes d'approche


LFPO - Paris-Orly

DERNIER METAR :
  • 140800Z 24013KT 9999 FEW043 05/01 Q1002 TEMPO 24015G30KT

METARs EXPIRÉS :
  • 140730Z 24014KT CAVOK 05/01 Q1002 TEMPO 24015G30KT
  • 140700Z 23014KT CAVOK 05/01 Q1002 TEMPO 24015G30KT
  • 140630Z 24014KT CAVOK 05/01 Q1003 TEMPO 24015G30KT
  • 140600Z 24014KT CAVOK 05/01 Q1003 TEMPO 24015G30KT
  • 140530Z 24014KT CAVOK 05/01 Q1003 TEMPO 25015G30KT

TAF AMD TAF LFPO
Valide du 14 à 06h jusqu'au 15 à 12h UTC


140540Z 1406/1512 24015KT 9999 SCT025
TEMPO 1406/1421 24015G30KT
TEMPO 1408/1421 4000 SHRA SCT025TCU
PROB40
TEMPO 1413/1419 SCT020CB
PROB30
TEMPO 1413/1419 2000 TSGS
PROB40
TEMPO 1502/1505 24015G25KT SCT020TCU
TEMPO 1509/1512 4000 SHRA BKN012 SCT030TCU
PROB40
TEMPO 1510/1512 2000 SHSNRA
ATIS : +33 1 49 75 65 80
Pas de NOTAMs connus pour ce terrain.
2 SIGMETs publiés pour la FIR Paris (LFFF) :
 
Turbulence forte
LFFF SIGMET 5 VALID 140730/140900 LFPW
LFFF PARIS FIR/UIR SEV TURB OBS AT 0730Z NW OF LINE N4900 W00015 - N5100 E00230 SFC/FL060 STNR WKN=
Orages noyés dans la masse
LFFF SIGMET 4 VALID 140625/140830 LFPW
LFFF PARIS FIR/UIR EMBD TS OBS AT 0625Z WI N5000 W00015 - N5100 E00145 - N5000 E00215 - N4915 W00015 - N5000 W00015 TOP FL280 MOV E 40KT NC=



MET'MAP, la Météo Aéronautique d'un coup d'oeil ! - Copyright ORBIFLY Décembre 2007 - Disclaimer

ORBIFLY MET'MAP TEAM :

Programmation & Développement : Alexandra Zaïnal
Conception & Développement : Baudouin d'Aumeries
Co-Programmation & Développement : Marc-Olivier Méhu
Soutien technique & logistique : Manuel Goepfert

Contact : metmap@orbifly.com




SOURCES & CREDITS :

   NOAA